Aviation Digital Data Service (ADDS)

Output produced by TAFs form (1329 UTC 16 August 2017)
found at http://aviationweather.gov/adds/tafs/
 
KSAF 161124Z 1612/1712 36008KT P6SM SKC 
     FM161730 24008KT P6SM SKC 
     FM162000 25011G16KT P6SM FEW100 
     FM170100 29006KT P6SM SCT100 
     FM170700 13006KT P6SM SKC